sensor_id;sensor_type;location;lat;lon;timestamp;P1;durP1;ratioP1;P2;durP2;ratioP2
8001;SDS011;4046;48.774;8.732;2023-08-12T00:01:03;3.43;;;3.23;;
8001;SDS011;4046;48.774;8.732;2023-08-12T00:03:29;3.60;;;3.40;;
8001;SDS011;4046;48.774;8.732;2023-08-12T00:05:54;3.33;;;3.13;;
8001;SDS011;4046;48.774;8.732;2023-08-12T00:08:21;3.90;;;3.67;;
8001;SDS011;4046;48.774;8.732;2023-08-12T00:10:47;3.60;;;3.40;;
8001;SDS011;4046;48.774;8.732;2023-08-12T00:13:13;3.43;;;3.23;;
8001;SDS011;4046;48.774;8.732;2023-08-12T00:15:42;3.50;;;3.27;;
8001;SDS011;4046;48.774;8.732;2023-08-12T00:18:08;3.67;;;3.37;;
8001;SDS011;4046;48.774;8.732;2023-08-12T00:20:34;3.03;;;2.83;;
8001;SDS011;4046;48.774;8.732;2023-08-12T00:23:00;3.47;;;3.27;;
8001;SDS011;4046;48.774;8.732;2023-08-12T00:25:26;3.60;;;3.40;;
8001;SDS011;4046;48.774;8.732;2023-08-12T00:27:51;3.40;;;3.20;;
8001;SDS011;4046;48.774;8.732;2023-08-12T00:30:17;3.70;;;3.50;;
8001;SDS011;4046;48.774;8.732;2023-08-12T00:32:43;3.53;;;3.33;;
8001;SDS011;4046;48.774;8.732;2023-08-12T00:35:08;3.30;;;3.10;;
8001;SDS011;4046;48.774;8.732;2023-08-12T00:37:34;3.50;;;3.20;;
8001;SDS011;4046;48.774;8.732;2023-08-12T00:40:00;3.80;;;3.53;;
8001;SDS011;4046;48.774;8.732;2023-08-12T00:42:26;3.80;;;3.60;;
8001;SDS011;4046;48.774;8.732;2023-08-12T00:44:51;3.40;;;3.20;;
8001;SDS011;4046;48.774;8.732;2023-08-12T00:47:17;3.83;;;3.50;;
8001;SDS011;4046;48.774;8.732;2023-08-12T00:49:43;3.40;;;3.20;;
8001;SDS011;4046;48.774;8.732;2023-08-12T00:52:11;3.33;;;3.13;;
8001;SDS011;4046;48.774;8.732;2023-08-12T00:54:40;3.50;;;3.30;;
8001;SDS011;4046;48.774;8.732;2023-08-12T00:57:06;3.37;;;3.17;;
8001;SDS011;4046;48.774;8.732;2023-08-12T00:59:34;3.60;;;3.40;;
8001;SDS011;4046;48.774;8.732;2023-08-12T01:02:02;3.50;;;3.30;;
8001;SDS011;4046;48.774;8.732;2023-08-12T01:04:29;3.70;;;3.40;;
8001;SDS011;4046;48.774;8.732;2023-08-12T01:06:55;3.27;;;3.07;;
8001;SDS011;4046;48.774;8.732;2023-08-12T01:09:20;3.60;;;3.30;;
8001;SDS011;4046;48.774;8.732;2023-08-12T01:14:17;3.20;;;3.00;;
8001;SDS011;4046;48.774;8.732;2023-08-12T01:17:01;5.30;;;3.20;;
8001;SDS011;4046;48.774;8.732;2023-08-12T01:22:02;3.40;;;3.20;;
8001;SDS011;4046;48.774;8.732;2023-08-12T01:24:33;3.40;;;3.20;;
8001;SDS011;4046;48.774;8.732;2023-08-12T01:27:00;3.50;;;3.13;;
8001;SDS011;4046;48.774;8.732;2023-08-12T01:29:26;3.57;;;3.37;;
8001;SDS011;4046;48.774;8.732;2023-08-12T01:31:54;3.10;;;2.90;;
8001;SDS011;4046;48.774;8.732;2023-08-12T01:34:31;3.67;;;3.37;;
8001;SDS011;4046;48.774;8.732;2023-08-12T01:37:02;4.03;;;3.73;;
8001;SDS011;4046;48.774;8.732;2023-08-12T01:39:29;3.70;;;3.50;;
8001;SDS011;4046;48.774;8.732;2023-08-12T01:41:57;3.60;;;3.40;;
8001;SDS011;4046;48.774;8.732;2023-08-12T01:44:24;3.80;;;3.60;;
8001;SDS011;4046;48.774;8.732;2023-08-12T01:46:50;3.27;;;3.00;;
8001;SDS011;4046;48.774;8.732;2023-08-12T01:49:15;3.80;;;3.50;;
8001;SDS011;4046;48.774;8.732;2023-08-12T01:51:41;3.90;;;3.70;;
8001;SDS011;4046;48.774;8.732;2023-08-12T01:54:07;3.47;;;3.27;;
8001;SDS011;4046;48.774;8.732;2023-08-12T01:56:32;3.80;;;3.60;;
8001;SDS011;4046;48.774;8.732;2023-08-12T01:58:58;3.30;;;3.10;;
8001;SDS011;4046;48.774;8.732;2023-08-12T02:01:24;3.57;;;3.37;;
8001;SDS011;4046;48.774;8.732;2023-08-12T02:03:49;3.50;;;3.30;;
8001;SDS011;4046;48.774;8.732;2023-08-12T02:06:15;3.70;;;3.50;;
8001;SDS011;4046;48.774;8.732;2023-08-12T02:08:41;3.80;;;3.60;;
8001;SDS011;4046;48.774;8.732;2023-08-12T02:11:06;3.60;;;3.40;;
8001;SDS011;4046;48.774;8.732;2023-08-12T02:13:32;3.30;;;3.10;;
8001;SDS011;4046;48.774;8.732;2023-08-12T02:15:58;3.53;;;3.33;;
8001;SDS011;4046;48.774;8.732;2023-08-12T02:18:24;3.73;;;3.50;;
8001;SDS011;4046;48.774;8.732;2023-08-12T02:20:49;4.13;;;3.30;;
8001;SDS011;4046;48.774;8.732;2023-08-12T02:23:15;3.10;;;2.90;;
8001;SDS011;4046;48.774;8.732;2023-08-12T02:25:40;3.63;;;3.43;;
8001;SDS011;4046;48.774;8.732;2023-08-12T02:28:06;3.50;;;3.30;;
8001;SDS011;4046;48.774;8.732;2023-08-12T02:30:32;3.87;;;3.57;;
8001;SDS011;4046;48.774;8.732;2023-08-12T02:32:58;3.73;;;3.53;;
8001;SDS011;4046;48.774;8.732;2023-08-12T02:35:24;3.60;;;3.40;;
8001;SDS011;4046;48.774;8.732;2023-08-12T02:37:49;3.60;;;3.40;;
8001;SDS011;4046;48.774;8.732;2023-08-12T02:40:15;3.67;;;3.47;;
8001;SDS011;4046;48.774;8.732;2023-08-12T02:42:41;3.80;;;3.60;;
8001;SDS011;4046;48.774;8.732;2023-08-12T02:45:07;3.63;;;3.43;;
8001;SDS011;4046;48.774;8.732;2023-08-12T02:47:33;3.63;;;3.43;;
8001;SDS011;4046;48.774;8.732;2023-08-12T02:49:58;3.67;;;3.47;;
8001;SDS011;4046;48.774;8.732;2023-08-12T02:52:24;3.40;;;3.20;;
8001;SDS011;4046;48.774;8.732;2023-08-12T02:54:50;3.77;;;3.47;;
8001;SDS011;4046;48.774;8.732;2023-08-12T02:57:16;3.37;;;3.17;;
8001;SDS011;4046;48.774;8.732;2023-08-12T02:59:41;4.00;;;3.80;;
8001;SDS011;4046;48.774;8.732;2023-08-12T03:02:07;3.43;;;3.23;;
8001;SDS011;4046;48.774;8.732;2023-08-12T03:04:33;3.70;;;3.50;;
8001;SDS011;4046;48.774;8.732;2023-08-12T03:06:59;3.40;;;3.20;;
8001;SDS011;4046;48.774;8.732;2023-08-12T03:09:24;3.47;;;3.27;;
8001;SDS011;4046;48.774;8.732;2023-08-12T03:11:50;3.63;;;3.43;;
8001;SDS011;4046;48.774;8.732;2023-08-12T03:14:16;3.50;;;3.30;;
8001;SDS011;4046;48.774;8.732;2023-08-12T03:16:41;3.90;;;3.70;;
8001;SDS011;4046;48.774;8.732;2023-08-12T03:19:07;3.47;;;3.27;;
8001;SDS011;4046;48.774;8.732;2023-08-12T03:21:33;3.90;;;3.70;;
8001;SDS011;4046;48.774;8.732;2023-08-12T03:23:59;3.63;;;3.43;;
8001;SDS011;4046;48.774;8.732;2023-08-12T03:26:25;3.23;;;3.03;;
8001;SDS011;4046;48.774;8.732;2023-08-12T03:28:51;3.93;;;3.63;;
8001;SDS011;4046;48.774;8.732;2023-08-12T03:31:16;3.33;;;3.13;;
8001;SDS011;4046;48.774;8.732;2023-08-12T03:33:42;3.50;;;3.30;;
8001;SDS011;4046;48.774;8.732;2023-08-12T03:36:08;3.27;;;3.07;;
8001;SDS011;4046;48.774;8.732;2023-08-12T03:38:34;3.63;;;3.43;;
8001;SDS011;4046;48.774;8.732;2023-08-12T03:41:01;3.10;;;2.90;;
8001;SDS011;4046;48.774;8.732;2023-08-12T03:43:27;3.50;;;3.30;;
8001;SDS011;4046;48.774;8.732;2023-08-12T03:45:53;3.27;;;3.07;;
8001;SDS011;4046;48.774;8.732;2023-08-12T03:48:19;3.90;;;3.70;;
8001;SDS011;4046;48.774;8.732;2023-08-12T03:50:45;3.50;;;3.30;;
8001;SDS011;4046;48.774;8.732;2023-08-12T03:53:12;3.10;;;2.90;;
8001;SDS011;4046;48.774;8.732;2023-08-12T03:55:37;3.57;;;3.37;;
8001;SDS011;4046;48.774;8.732;2023-08-12T03:58:03;4.03;;;3.73;;
8001;SDS011;4046;48.774;8.732;2023-08-12T04:00:30;3.57;;;3.37;;
8001;SDS011;4046;48.774;8.732;2023-08-12T04:02:56;3.80;;;3.60;;
8001;SDS011;4046;48.774;8.732;2023-08-12T04:05:21;3.47;;;3.27;;
8001;SDS011;4046;48.774;8.732;2023-08-12T04:07:47;3.30;;;3.10;;
8001;SDS011;4046;48.774;8.732;2023-08-12T04:10:13;3.40;;;3.20;;
8001;SDS011;4046;48.774;8.732;2023-08-12T04:12:40;3.87;;;3.67;;
8001;SDS011;4046;48.774;8.732;2023-08-12T04:15:09;3.83;;;3.63;;
8001;SDS011;4046;48.774;8.732;2023-08-12T04:17:35;3.87;;;3.67;;
8001;SDS011;4046;48.774;8.732;2023-08-12T04:20:00;3.70;;;3.40;;
8001;SDS011;4046;48.774;8.732;2023-08-12T04:22:27;3.97;;;3.67;;
8001;SDS011;4046;48.774;8.732;2023-08-12T04:24:53;3.70;;;3.50;;
8001;SDS011;4046;48.774;8.732;2023-08-12T04:27:19;3.67;;;3.47;;
8001;SDS011;4046;48.774;8.732;2023-08-12T04:29:46;4.07;;;3.80;;
8001;SDS011;4046;48.774;8.732;2023-08-12T04:32:12;4.00;;;3.80;;
8001;SDS011;4046;48.774;8.732;2023-08-12T04:34:38;3.63;;;3.40;;
8001;SDS011;4046;48.774;8.732;2023-08-12T04:37:03;3.67;;;3.47;;
8001;SDS011;4046;48.774;8.732;2023-08-12T04:39:29;4.30;;;4.00;;
8001;SDS011;4046;48.774;8.732;2023-08-12T04:41:57;3.70;;;3.50;;
8001;SDS011;4046;48.774;8.732;2023-08-12T04:44:23;4.03;;;3.67;;
8001;SDS011;4046;48.774;8.732;2023-08-12T04:46:49;4.80;;;3.63;;
8001;SDS011;4046;48.774;8.732;2023-08-12T04:49:15;3.20;;;3.00;;
8001;SDS011;4046;48.774;8.732;2023-08-12T04:51:41;4.07;;;3.67;;
8001;SDS011;4046;48.774;8.732;2023-08-12T04:54:07;4.00;;;3.80;;
8001;SDS011;4046;48.774;8.732;2023-08-12T04:56:33;3.80;;;3.60;;
8001;SDS011;4046;48.774;8.732;2023-08-12T04:58:59;3.40;;;3.20;;
8001;SDS011;4046;48.774;8.732;2023-08-12T05:01:24;3.60;;;3.40;;
8001;SDS011;4046;48.774;8.732;2023-08-12T05:03:50;3.43;;;3.23;;
8001;SDS011;4046;48.774;8.732;2023-08-12T05:06:15;3.33;;;3.13;;
8001;SDS011;4046;48.774;8.732;2023-08-12T05:08:41;3.67;;;3.47;;
8001;SDS011;4046;48.774;8.732;2023-08-12T05:11:07;5.10;;;4.07;;
8001;SDS011;4046;48.774;8.732;2023-08-12T05:13:33;3.60;;;3.40;;
8001;SDS011;4046;48.774;8.732;2023-08-12T05:15:59;3.37;;;3.17;;
8001;SDS011;4046;48.774;8.732;2023-08-12T05:18:24;3.60;;;3.40;;
8001;SDS011;4046;48.774;8.732;2023-08-12T05:20:51;3.73;;;3.43;;
8001;SDS011;4046;48.774;8.732;2023-08-12T05:23:18;3.87;;;3.57;;
8001;SDS011;4046;48.774;8.732;2023-08-12T05:25:45;3.60;;;3.40;;
8001;SDS011;4046;48.774;8.732;2023-08-12T05:28:11;4.20;;;3.90;;
8001;SDS011;4046;48.774;8.732;2023-08-12T05:30:36;3.50;;;3.30;;
8001;SDS011;4046;48.774;8.732;2023-08-12T05:33:04;3.63;;;3.43;;
8001;SDS011;4046;48.774;8.732;2023-08-12T05:35:33;3.10;;;2.90;;
8001;SDS011;4046;48.774;8.732;2023-08-12T05:37:59;3.77;;;3.47;;
8001;SDS011;4046;48.774;8.732;2023-08-12T05:40:26;3.33;;;3.13;;
8001;SDS011;4046;48.774;8.732;2023-08-12T05:42:52;3.80;;;3.60;;
8001;SDS011;4046;48.774;8.732;2023-08-12T05:45:18;3.60;;;3.40;;
8001;SDS011;4046;48.774;8.732;2023-08-12T05:47:43;3.87;;;3.60;;
8001;SDS011;4046;48.774;8.732;2023-08-12T05:50:09;3.70;;;3.50;;
8001;SDS011;4046;48.774;8.732;2023-08-12T05:52:35;3.40;;;3.20;;
8001;SDS011;4046;48.774;8.732;2023-08-12T05:55:01;3.50;;;3.30;;
8001;SDS011;4046;48.774;8.732;2023-08-12T05:57:27;3.63;;;3.43;;
8001;SDS011;4046;48.774;8.732;2023-08-12T05:59:52;3.90;;;3.70;;
8001;SDS011;4046;48.774;8.732;2023-08-12T06:02:18;4.20;;;3.93;;
8001;SDS011;4046;48.774;8.732;2023-08-12T06:04:44;3.70;;;3.50;;
8001;SDS011;4046;48.774;8.732;2023-08-12T06:07:10;4.00;;;3.80;;
8001;SDS011;4046;48.774;8.732;2023-08-12T06:09:35;3.47;;;3.27;;
8001;SDS011;4046;48.774;8.732;2023-08-12T06:12:01;3.77;;;3.57;;
8001;SDS011;4046;48.774;8.732;2023-08-12T06:14:27;3.47;;;3.27;;
8001;SDS011;4046;48.774;8.732;2023-08-12T06:16:53;3.70;;;3.50;;
8001;SDS011;4046;48.774;8.732;2023-08-12T06:19:18;3.87;;;3.57;;
8001;SDS011;4046;48.774;8.732;2023-08-12T06:21:44;3.70;;;3.50;;
8001;SDS011;4046;48.774;8.732;2023-08-12T06:24:10;3.53;;;3.33;;
8001;SDS011;4046;48.774;8.732;2023-08-12T06:26:35;3.50;;;3.30;;
8001;SDS011;4046;48.774;8.732;2023-08-12T06:29:01;3.97;;;3.67;;
8001;SDS011;4046;48.774;8.732;2023-08-12T06:31:27;3.50;;;3.30;;
8001;SDS011;4046;48.774;8.732;2023-08-12T06:33:52;3.57;;;3.37;;
8001;SDS011;4046;48.774;8.732;2023-08-12T06:36:18;3.47;;;3.27;;
8001;SDS011;4046;48.774;8.732;2023-08-12T06:38:43;3.60;;;3.40;;
8001;SDS011;4046;48.774;8.732;2023-08-12T06:41:09;4.00;;;3.70;;
8001;SDS011;4046;48.774;8.732;2023-08-12T06:43:35;3.50;;;3.20;;
8001;SDS011;4046;48.774;8.732;2023-08-12T06:46:01;3.60;;;3.40;;
8001;SDS011;4046;48.774;8.732;2023-08-12T06:48:26;3.80;;;3.60;;
8001;SDS011;4046;48.774;8.732;2023-08-12T06:50:53;3.80;;;3.60;;
8001;SDS011;4046;48.774;8.732;2023-08-12T06:53:20;3.60;;;3.40;;
8001;SDS011;4046;48.774;8.732;2023-08-12T06:55:46;3.77;;;3.57;;
8001;SDS011;4046;48.774;8.732;2023-08-12T06:58:12;3.80;;;3.50;;
8001;SDS011;4046;48.774;8.732;2023-08-12T07:00:38;3.60;;;3.40;;
8001;SDS011;4046;48.774;8.732;2023-08-12T07:03:04;3.80;;;3.60;;
8001;SDS011;4046;48.774;8.732;2023-08-12T07:05:30;3.13;;;2.93;;
8001;SDS011;4046;48.774;8.732;2023-08-12T07:07:55;3.20;;;3.00;;
8001;SDS011;4046;48.774;8.732;2023-08-12T07:10:21;3.70;;;3.50;;
8001;SDS011;4046;48.774;8.732;2023-08-12T07:12:47;3.67;;;3.47;;
8001;SDS011;4046;48.774;8.732;2023-08-12T07:15:12;3.60;;;3.40;;
8001;SDS011;4046;48.774;8.732;2023-08-12T07:17:38;3.70;;;3.50;;
8001;SDS011;4046;48.774;8.732;2023-08-12T07:20:04;3.40;;;3.10;;
8001;SDS011;4046;48.774;8.732;2023-08-12T07:22:31;3.80;;;3.60;;
8001;SDS011;4046;48.774;8.732;2023-08-12T07:24:57;4.37;;;4.07;;
8001;SDS011;4046;48.774;8.732;2023-08-12T07:27:25;3.50;;;3.30;;
8001;SDS011;4046;48.774;8.732;2023-08-12T07:29:51;3.57;;;3.37;;
8001;SDS011;4046;48.774;8.732;2023-08-12T07:32:17;4.37;;;4.07;;
8001;SDS011;4046;48.774;8.732;2023-08-12T07:34:44;3.77;;;3.47;;
8001;SDS011;4046;48.774;8.732;2023-08-12T07:37:10;3.77;;;3.57;;
8001;SDS011;4046;48.774;8.732;2023-08-12T07:39:36;3.30;;;3.10;;
8001;SDS011;4046;48.774;8.732;2023-08-12T07:42:01;3.47;;;3.27;;
8001;SDS011;4046;48.774;8.732;2023-08-12T07:44:27;3.17;;;2.97;;
8001;SDS011;4046;48.774;8.732;2023-08-12T07:46:53;3.70;;;3.50;;
8001;SDS011;4046;48.774;8.732;2023-08-12T07:49:18;3.23;;;3.03;;
8001;SDS011;4046;48.774;8.732;2023-08-12T07:51:44;3.40;;;3.20;;
8001;SDS011;4046;48.774;8.732;2023-08-12T07:54:10;3.50;;;3.30;;
8001;SDS011;4046;48.774;8.732;2023-08-12T07:56:35;3.23;;;3.03;;
8001;SDS011;4046;48.774;8.732;2023-08-12T07:59:01;3.60;;;3.40;;
8001;SDS011;4046;48.774;8.732;2023-08-12T08:01:28;3.83;;;3.63;;
8001;SDS011;4046;48.774;8.732;2023-08-12T08:03:53;3.27;;;3.07;;
8001;SDS011;4046;48.774;8.732;2023-08-12T08:06:19;3.50;;;3.30;;
8001;SDS011;4046;48.774;8.732;2023-08-12T08:08:45;2.93;;;2.73;;
8001;SDS011;4046;48.774;8.732;2023-08-12T08:11:10;3.50;;;3.30;;
8001;SDS011;4046;48.774;8.732;2023-08-12T08:13:36;3.13;;;2.93;;
8001;SDS011;4046;48.774;8.732;2023-08-12T08:16:02;3.70;;;3.50;;
8001;SDS011;4046;48.774;8.732;2023-08-12T08:18:28;3.37;;;3.17;;
8001;SDS011;4046;48.774;8.732;2023-08-12T08:20:53;3.73;;;3.53;;
8001;SDS011;4046;48.774;8.732;2023-08-12T08:23:20;3.33;;;3.13;;
8001;SDS011;4046;48.774;8.732;2023-08-12T08:25:45;3.10;;;3.00;;
8001;SDS011;4046;48.774;8.732;2023-08-12T08:28:12;3.00;;;2.80;;
8001;SDS011;4046;48.774;8.732;2023-08-12T08:30:37;4.07;;;3.80;;
8001;SDS011;4046;48.774;8.732;2023-08-12T08:33:03;3.30;;;3.10;;
8001;SDS011;4046;48.774;8.732;2023-08-12T08:35:29;3.60;;;3.40;;
8001;SDS011;4046;48.774;8.732;2023-08-12T08:37:55;3.23;;;3.03;;
8001;SDS011;4046;48.774;8.732;2023-08-12T08:40:21;3.23;;;3.03;;
8001;SDS011;4046;48.774;8.732;2023-08-12T08:42:47;3.40;;;3.20;;
8001;SDS011;4046;48.774;8.732;2023-08-12T08:45:20;3.10;;;2.90;;
8001;SDS011;4046;48.774;8.732;2023-08-12T08:47:49;3.43;;;3.23;;
8001;SDS011;4046;48.774;8.732;2023-08-12T08:50:16;3.33;;;3.13;;
8001;SDS011;4046;48.774;8.732;2023-08-12T08:52:43;3.07;;;2.87;;
8001;SDS011;4046;48.774;8.732;2023-08-12T08:55:09;3.40;;;3.20;;
8001;SDS011;4046;48.774;8.732;2023-08-12T08:57:37;3.20;;;3.00;;
8001;SDS011;4046;48.774;8.732;2023-08-12T09:00:03;3.30;;;3.00;;
8001;SDS011;4046;48.774;8.732;2023-08-12T09:02:32;3.50;;;3.30;;
8001;SDS011;4046;48.774;8.732;2023-08-12T09:05:01;3.30;;;3.10;;
8001;SDS011;4046;48.774;8.732;2023-08-12T09:07:27;3.07;;;2.87;;
8001;SDS011;4046;48.774;8.732;2023-08-12T09:09:54;3.43;;;3.23;;
8001;SDS011;4046;48.774;8.732;2023-08-12T09:12:21;3.20;;;3.00;;
8001;SDS011;4046;48.774;8.732;2023-08-12T09:14:49;4.70;;;4.40;;
8001;SDS011;4046;48.774;8.732;2023-08-12T09:17:15;6.50;;;6.00;;
8001;SDS011;4046;48.774;8.732;2023-08-12T09:19:41;6.60;;;6.13;;
8001;SDS011;4046;48.774;8.732;2023-08-12T09:22:07;7.13;;;6.63;;
8001;SDS011;4046;48.774;8.732;2023-08-12T09:24:36;7.80;;;7.20;;
8001;SDS011;4046;48.774;8.732;2023-08-12T09:27:02;6.67;;;6.27;;
8001;SDS011;4046;48.774;8.732;2023-08-12T09:29:30;8.53;;;7.80;;
8001;SDS011;4046;48.774;8.732;2023-08-12T09:32:32;7.80;;;7.30;;
8001;SDS011;4046;48.774;8.732;2023-08-12T09:34:52;7.47;;;6.97;;
8001;SDS011;4046;48.774;8.732;2023-08-12T09:37:19;8.07;;;7.47;;
8001;SDS011;4046;48.774;8.732;2023-08-12T09:39:48;8.43;;;7.83;;
8001;SDS011;4046;48.774;8.732;2023-08-12T09:42:15;7.10;;;6.70;;
8001;SDS011;4046;48.774;8.732;2023-08-12T09:44:42;8.10;;;7.60;;
8001;SDS011;4046;48.774;8.732;2023-08-12T09:47:08;8.57;;;7.83;;
8001;SDS011;4046;48.774;8.732;2023-08-12T09:49:34;7.77;;;7.17;;
8001;SDS011;4046;48.774;8.732;2023-08-12T09:52:01;8.17;;;7.57;;
8001;SDS011;4046;48.774;8.732;2023-08-12T09:54:29;7.37;;;6.80;;
8001;SDS011;4046;48.774;8.732;2023-08-12T09:56:58;7.03;;;6.60;;
8001;SDS011;4046;48.774;8.732;2023-08-12T09:59:34;7.37;;;6.77;;
8001;SDS011;4046;48.774;8.732;2023-08-12T10:02:01;7.47;;;6.97;;
8001;SDS011;4046;48.774;8.732;2023-08-12T10:04:41;7.43;;;6.93;;
8001;SDS011;4046;48.774;8.732;2023-08-12T10:07:11;6.70;;;6.30;;
8001;SDS011;4046;48.774;8.732;2023-08-12T10:09:39;6.57;;;6.17;;
8001;SDS011;4046;48.774;8.732;2023-08-12T10:12:06;7.00;;;6.60;;
8001;SDS011;4046;48.774;8.732;2023-08-12T10:14:32;7.57;;;7.07;;
8001;SDS011;4046;48.774;8.732;2023-08-12T10:16:58;6.93;;;6.53;;
8001;SDS011;4046;48.774;8.732;2023-08-12T10:19:25;6.33;;;5.93;;
8001;SDS011;4046;48.774;8.732;2023-08-12T10:21:54;7.50;;;6.80;;
8001;SDS011;4046;48.774;8.732;2023-08-12T10:24:25;7.37;;;6.87;;
8001;SDS011;4046;48.774;8.732;2023-08-12T10:26:52;7.17;;;6.77;;
8001;SDS011;4046;48.774;8.732;2023-08-12T10:29:19;6.87;;;6.37;;
8001;SDS011;4046;48.774;8.732;2023-08-12T10:31:46;6.87;;;6.47;;
8001;SDS011;4046;48.774;8.732;2023-08-12T10:34:23;6.63;;;6.23;;
8001;SDS011;4046;48.774;8.732;2023-08-12T10:36:53;6.07;;;5.67;;
8001;SDS011;4046;48.774;8.732;2023-08-12T10:39:27;6.77;;;6.37;;
8001;SDS011;4046;48.774;8.732;2023-08-12T10:41:56;6.60;;;6.20;;
8001;SDS011;4046;48.774;8.732;2023-08-12T10:44:22;6.03;;;5.63;;
8001;SDS011;4046;48.774;8.732;2023-08-12T10:46:53;6.17;;;5.67;;
8001;SDS011;4046;48.774;8.732;2023-08-12T10:49:20;6.17;;;5.77;;
8001;SDS011;4046;48.774;8.732;2023-08-12T10:51:47;6.40;;;6.00;;
8001;SDS011;4046;48.774;8.732;2023-08-12T11:02:17;5.90;;;5.40;;
8001;SDS011;4046;48.774;8.732;2023-08-12T11:04:44;5.80;;;5.10;;
8001;SDS011;4046;48.774;8.732;2023-08-12T11:10:05;5.80;;;5.43;;
8001;SDS011;4046;48.774;8.732;2023-08-12T11:15:17;5.80;;;5.40;;
8001;SDS011;4046;48.774;8.732;2023-08-12T11:17:45;5.30;;;5.00;;
8001;SDS011;4046;48.774;8.732;2023-08-12T11:20:12;4.97;;;4.63;;
8001;SDS011;4046;48.774;8.732;2023-08-12T11:22:42;5.57;;;5.27;;
8001;SDS011;4046;48.774;8.732;2023-08-12T11:25:10;5.43;;;5.13;;
8001;SDS011;4046;48.774;8.732;2023-08-12T11:27:43;5.30;;;5.00;;
8001;SDS011;4046;48.774;8.732;2023-08-12T11:30:15;4.83;;;4.53;;
8001;SDS011;4046;48.774;8.732;2023-08-12T11:32:43;5.00;;;4.70;;
8001;SDS011;4046;48.774;8.732;2023-08-12T11:35:12;5.53;;;5.17;;
8001;SDS011;4046;48.774;8.732;2023-08-12T11:37:39;5.17;;;4.77;;
8001;SDS011;4046;48.774;8.732;2023-08-12T11:40:06;4.80;;;4.50;;
8001;SDS011;4046;48.774;8.732;2023-08-12T11:42:36;5.13;;;4.83;;
8001;SDS011;4046;48.774;8.732;2023-08-12T11:45:04;5.20;;;4.80;;
8001;SDS011;4046;48.774;8.732;2023-08-12T11:47:30;4.77;;;4.47;;
8001;SDS011;4046;48.774;8.732;2023-08-12T11:49:56;5.17;;;4.83;;
8001;SDS011;4046;48.774;8.732;2023-08-12T11:52:22;5.30;;;5.00;;
8001;SDS011;4046;48.774;8.732;2023-08-12T11:54:49;4.60;;;4.30;;
8001;SDS011;4046;48.774;8.732;2023-08-12T11:57:15;4.97;;;4.67;;
8001;SDS011;4046;48.774;8.732;2023-08-12T11:59:42;5.40;;;5.07;;
8001;SDS011;4046;48.774;8.732;2023-08-12T12:02:08;5.10;;;4.80;;
8001;SDS011;4046;48.774;8.732;2023-08-12T12:04:35;4.70;;;4.40;;
8001;SDS011;4046;48.774;8.732;2023-08-12T12:07:01;5.10;;;4.80;;
8001;SDS011;4046;48.774;8.732;2023-08-12T12:09:31;5.37;;;4.97;;
8001;SDS011;4046;48.774;8.732;2023-08-12T12:11:58;4.70;;;4.40;;
8001;SDS011;4046;48.774;8.732;2023-08-12T12:14:25;4.70;;;4.40;;
8001;SDS011;4046;48.774;8.732;2023-08-12T12:16:51;4.60;;;4.40;;
8001;SDS011;4046;48.774;8.732;2023-08-12T12:19:17;4.87;;;4.57;;
8001;SDS011;4046;48.774;8.732;2023-08-12T12:21:45;5.30;;;4.90;;
8001;SDS011;4046;48.774;8.732;2023-08-12T12:24:12;5.00;;;4.70;;
8001;SDS011;4046;48.774;8.732;2023-08-12T12:26:39;4.80;;;4.50;;
8001;SDS011;4046;48.774;8.732;2023-08-12T12:29:05;5.30;;;5.00;;
8001;SDS011;4046;48.774;8.732;2023-08-12T12:31:32;4.60;;;4.30;;
8001;SDS011;4046;48.774;8.732;2023-08-12T12:34:00;5.40;;;5.10;;
8001;SDS011;4046;48.774;8.732;2023-08-12T12:36:26;5.10;;;4.80;;
8001;SDS011;4046;48.774;8.732;2023-08-12T12:38:52;4.93;;;4.53;;
8001;SDS011;4046;48.774;8.732;2023-08-12T12:41:17;5.30;;;4.97;;
8001;SDS011;4046;48.774;8.732;2023-08-12T12:43:43;4.60;;;4.30;;
8001;SDS011;4046;48.774;8.732;2023-08-12T12:46:09;3.93;;;3.73;;
8001;SDS011;4046;48.774;8.732;2023-08-12T12:48:34;4.47;;;4.17;;
8001;SDS011;4046;48.774;8.732;2023-08-12T12:51:00;4.70;;;4.40;;
8001;SDS011;4046;48.774;8.732;2023-08-12T12:53:26;4.40;;;4.20;;
8001;SDS011;4046;48.774;8.732;2023-08-12T12:55:51;4.00;;;3.80;;
8001;SDS011;4046;48.774;8.732;2023-08-12T12:58:17;4.40;;;4.10;;
8001;SDS011;4046;48.774;8.732;2023-08-12T13:00:43;4.57;;;4.27;;
8001;SDS011;4046;48.774;8.732;2023-08-12T13:03:08;4.50;;;4.20;;
8001;SDS011;4046;48.774;8.732;2023-08-12T13:05:34;4.50;;;4.20;;
8001;SDS011;4046;48.774;8.732;2023-08-12T13:08:00;4.50;;;4.20;;
8001;SDS011;4046;48.774;8.732;2023-08-12T13:10:25;4.80;;;4.50;;
8001;SDS011;4046;48.774;8.732;2023-08-12T13:12:51;4.50;;;4.20;;
8001;SDS011;4046;48.774;8.732;2023-08-12T13:15:17;4.70;;;4.40;;
8001;SDS011;4046;48.774;8.732;2023-08-12T13:17:42;4.10;;;3.80;;
8001;SDS011;4046;48.774;8.732;2023-08-12T13:20:08;4.13;;;3.93;;
8001;SDS011;4046;48.774;8.732;2023-08-12T13:22:34;4.53;;;4.23;;
8001;SDS011;4046;48.774;8.732;2023-08-12T13:25:00;3.90;;;3.60;;
8001;SDS011;4046;48.774;8.732;2023-08-12T13:27:26;4.53;;;4.23;;
8001;SDS011;4046;48.774;8.732;2023-08-12T13:29:53;4.30;;;4.00;;
8001;SDS011;4046;48.774;8.732;2023-08-12T13:32:18;4.23;;;4.03;;
8001;SDS011;4046;48.774;8.732;2023-08-12T13:34:44;4.27;;;3.87;;
8001;SDS011;4046;48.774;8.732;2023-08-12T13:37:11;4.00;;;3.80;;
8001;SDS011;4046;48.774;8.732;2023-08-12T13:39:37;4.47;;;4.07;;
8001;SDS011;4046;48.774;8.732;2023-08-12T13:42:03;4.60;;;4.30;;
8001;SDS011;4046;48.774;8.732;2023-08-12T13:44:29;4.10;;;3.90;;
8001;SDS011;4046;48.774;8.732;2023-08-12T13:46:55;4.40;;;4.10;;
8001;SDS011;4046;48.774;8.732;2023-08-12T13:49:20;4.23;;;3.93;;
8001;SDS011;4046;48.774;8.732;2023-08-12T13:51:46;4.10;;;3.90;;
8001;SDS011;4046;48.774;8.732;2023-08-12T13:54:12;4.20;;;3.90;;
8001;SDS011;4046;48.774;8.732;2023-08-12T13:56:37;3.77;;;3.50;;
8001;SDS011;4046;48.774;8.732;2023-08-12T13:59:03;4.23;;;3.83;;
8001;SDS011;4046;48.774;8.732;2023-08-12T14:01:29;3.80;;;3.60;;
8001;SDS011;4046;48.774;8.732;2023-08-12T14:03:55;4.10;;;3.70;;
8001;SDS011;4046;48.774;8.732;2023-08-12T14:06:20;4.23;;;3.93;;
8001;SDS011;4046;48.774;8.732;2023-08-12T14:08:46;3.53;;;3.33;;
8001;SDS011;4046;48.774;8.732;2023-08-12T14:11:12;3.67;;;3.47;;
8001;SDS011;4046;48.774;8.732;2023-08-12T14:13:37;3.80;;;3.60;;
8001;SDS011;4046;48.774;8.732;2023-08-12T14:16:03;3.57;;;3.37;;
8001;SDS011;4046;48.774;8.732;2023-08-12T14:18:29;3.93;;;3.63;;
8001;SDS011;4046;48.774;8.732;2023-08-12T14:20:54;3.60;;;3.40;;
8001;SDS011;4046;48.774;8.732;2023-08-12T14:23:20;3.40;;;3.20;;
8001;SDS011;4046;48.774;8.732;2023-08-12T14:25:46;4.10;;;3.80;;
8001;SDS011;4046;48.774;8.732;2023-08-12T14:28:11;3.60;;;3.40;;
8001;SDS011;4046;48.774;8.732;2023-08-12T14:30:37;4.17;;;3.87;;
8001;SDS011;4046;48.774;8.732;2023-08-12T14:33:03;4.00;;;3.70;;
8001;SDS011;4046;48.774;8.732;2023-08-12T14:35:28;3.60;;;3.40;;
8001;SDS011;4046;48.774;8.732;2023-08-12T14:37:54;4.00;;;3.80;;
8001;SDS011;4046;48.774;8.732;2023-08-12T14:40:20;3.80;;;3.60;;
8001;SDS011;4046;48.774;8.732;2023-08-12T14:42:46;3.63;;;3.40;;
8001;SDS011;4046;48.774;8.732;2023-08-12T14:45:11;3.60;;;3.40;;
8001;SDS011;4046;48.774;8.732;2023-08-12T14:47:37;3.70;;;3.50;;
8001;SDS011;4046;48.774;8.732;2023-08-12T14:50:03;4.00;;;3.70;;
8001;SDS011;4046;48.774;8.732;2023-08-12T14:52:29;3.60;;;3.40;;
8001;SDS011;4046;48.774;8.732;2023-08-12T14:54:54;3.40;;;3.20;;
8001;SDS011;4046;48.774;8.732;2023-08-12T14:57:20;3.40;;;3.20;;
8001;SDS011;4046;48.774;8.732;2023-08-12T14:59:46;3.50;;;3.27;;
8001;SDS011;4046;48.774;8.732;2023-08-12T15:02:15;3.20;;;3.00;;
8001;SDS011;4046;48.774;8.732;2023-08-12T15:04:42;3.67;;;3.47;;
8001;SDS011;4046;48.774;8.732;2023-08-12T15:07:08;3.43;;;3.23;;
8001;SDS011;4046;48.774;8.732;2023-08-12T15:09:34;3.37;;;3.17;;
8001;SDS011;4046;48.774;8.732;2023-08-12T15:11:59;3.87;;;3.63;;
8001;SDS011;4046;48.774;8.732;2023-08-12T15:14:25;3.60;;;3.40;;
8001;SDS011;4046;48.774;8.732;2023-08-12T15:16:51;3.80;;;3.60;;
8001;SDS011;4046;48.774;8.732;2023-08-12T15:19:17;4.00;;;3.70;;
8001;SDS011;4046;48.774;8.732;2023-08-12T15:21:42;3.87;;;3.57;;
8001;SDS011;4046;48.774;8.732;2023-08-12T15:24:08;3.30;;;3.10;;
8001;SDS011;4046;48.774;8.732;2023-08-12T15:26:35;3.70;;;3.50;;
8001;SDS011;4046;48.774;8.732;2023-08-12T15:29:00;4.07;;;3.77;;